sensor_id;sensor_type;location;lat;lon;timestamp;pressure;altitude;pressure_sealevel;temperature;humidity
16806;BME280;8520;50.102;20.010;2022-12-20T00:01:27;99228.28;;;0.64;67.41
16806;BME280;8520;50.102;20.010;2022-12-20T00:03:58;99226.38;;;0.71;67.40
16806;BME280;8520;50.102;20.010;2022-12-20T00:06:29;99219.06;;;0.97;67.63
16806;BME280;8520;50.102;20.010;2022-12-20T00:08:59;99210.56;;;1.16;67.36
16806;BME280;8520;50.102;20.010;2022-12-20T00:11:28;99219.09;;;1.36;67.09
16806;BME280;8520;50.102;20.010;2022-12-20T00:13:57;99218.72;;;1.34;67.16
16806;BME280;8520;50.102;20.010;2022-12-20T00:16:26;99227.22;;;1.36;67.23
16806;BME280;8520;50.102;20.010;2022-12-20T00:18:56;99228.78;;;1.37;67.26
16806;BME280;8520;50.102;20.010;2022-12-20T00:21:25;99235.03;;;1.37;67.42
16806;BME280;8520;50.102;20.010;2022-12-20T00:23:55;99232.28;;;1.45;67.35
16806;BME280;8520;50.102;20.010;2022-12-20T00:26:25;99231.88;;;1.46;67.51
16806;BME280;8520;50.102;20.010;2022-12-20T00:28:54;99221.03;;;1.46;68.04
16806;BME280;8520;50.102;20.010;2022-12-20T00:31:25;99225.69;;;1.49;67.82
16806;BME280;8520;50.102;20.010;2022-12-20T00:33:55;99230.34;;;1.45;71.51
16806;BME280;8520;50.102;20.010;2022-12-20T00:36:25;99224.13;;;1.62;70.04
16806;BME280;8520;50.102;20.010;2022-12-20T00:38:56;99228.38;;;1.63;68.98
16806;BME280;8520;50.102;20.010;2022-12-20T00:41:27;99238.47;;;1.63;68.92
16806;BME280;8520;50.102;20.010;2022-12-20T00:43:56;99232.69;;;1.57;68.94
16806;BME280;8520;50.102;20.010;2022-12-20T00:46:24;99234.97;;;1.62;69.03
16806;BME280;8520;50.102;20.010;2022-12-20T00:48:53;99240.44;;;1.66;68.97
16806;BME280;8520;50.102;20.010;2022-12-20T00:51:24;99229.94;;;1.61;68.64
16806;BME280;8520;50.102;20.010;2022-12-20T00:53:53;99241.59;;;1.65;68.82
16806;BME280;8520;50.102;20.010;2022-12-20T00:56:23;99228.78;;;1.62;68.58
16806;BME280;8520;50.102;20.010;2022-12-20T00:58:54;99240.81;;;1.32;69.08
16806;BME280;8520;50.102;20.010;2022-12-20T01:01:26;99241.97;;;1.28;69.66
16806;BME280;8520;50.102;20.010;2022-12-20T01:03:55;99228.81;;;1.40;69.46
16806;BME280;8520;50.102;20.010;2022-12-20T01:06:23;99231.53;;;1.48;69.56
16806;BME280;8520;50.102;20.010;2022-12-20T01:08:52;99226.09;;;1.48;69.75
16806;BME280;8520;50.102;20.010;2022-12-20T01:11:21;99228.41;;;1.46;69.85
16806;BME280;8520;50.102;20.010;2022-12-20T01:13:53;99222.97;;;1.56;69.91
16806;BME280;8520;50.102;20.010;2022-12-20T01:16:24;99223.34;;;1.65;70.22
16806;BME280;8520;50.102;20.010;2022-12-20T01:18:53;99224.91;;;1.66;70.08
16806;BME280;8520;50.102;20.010;2022-12-20T01:21:23;99223.75;;;1.67;70.10
16806;BME280;8520;50.102;20.010;2022-12-20T01:23:51;99212.84;;;1.71;70.18
16806;BME280;8520;50.102;20.010;2022-12-20T01:26:21;99207.44;;;1.67;70.70
16806;BME280;8520;50.102;20.010;2022-12-20T01:28:53;99207.44;;;1.75;70.83
16806;BME280;8520;50.102;20.010;2022-12-20T01:31:23;99202.75;;;1.79;70.94
16806;BME280;8520;50.102;20.010;2022-12-20T01:33:51;99192.66;;;1.86;70.80
16806;BME280;8520;50.102;20.010;2022-12-20T01:36:22;99198.06;;;1.83;71.03
16806;BME280;8520;50.102;20.010;2022-12-20T01:38:55;99195.75;;;1.85;71.03
16806;BME280;8520;50.102;20.010;2022-12-20T01:41:23;99185.66;;;1.82;71.03
16806;BME280;8520;50.102;20.010;2022-12-20T01:43:55;99184.13;;;1.84;71.18
16806;BME280;8520;50.102;20.010;2022-12-20T01:46:25;99175.97;;;1.84;70.98
16806;BME280;8520;50.102;20.010;2022-12-20T01:48:57;99175.19;;;1.84;71.24
16806;BME280;8520;50.102;20.010;2022-12-20T01:51:28;99177.09;;;1.90;70.69
16806;BME280;8520;50.102;20.010;2022-12-20T01:54:01;99187.59;;;1.85;70.87
16806;BME280;8520;50.102;20.010;2022-12-20T01:56:31;99183.31;;;1.94;70.81
16806;BME280;8520;50.102;20.010;2022-12-20T01:59:02;99183.28;;;2.02;70.99
16806;BME280;8520;50.102;20.010;2022-12-20T02:01:31;99182.16;;;1.95;71.08
16806;BME280;8520;50.102;20.010;2022-12-20T02:03:59;99179.41;;;1.95;70.73
16806;BME280;8520;50.102;20.010;2022-12-20T02:06:27;99172.41;;;2.02;71.01
16806;BME280;8520;50.102;20.010;2022-12-20T02:08:59;99173.97;;;2.03;71.21
16806;BME280;8520;50.102;20.010;2022-12-20T02:11:47;99187.56;;;2.03;71.02
16806;BME280;8520;50.102;20.010;2022-12-20T02:14:29;99205.84;;;1.74;71.85
16806;BME280;8520;50.102;20.010;2022-12-20T02:17:06;99204.75;;;1.57;72.57
16806;BME280;8520;50.102;20.010;2022-12-20T02:20:00;99195.84;;;1.10;73.71
16806;BME280;8520;50.102;20.010;2022-12-20T02:22:45;99188.84;;;1.30;74.13
16806;BME280;8520;50.102;20.010;2022-12-20T02:28:25;99174.44;;;1.69;73.30
16806;BME280;8520;50.102;20.010;2022-12-20T02:31:03;99169.41;;;1.67;73.35
16806;BME280;8520;50.102;20.010;2022-12-20T02:33:32;99158.53;;;1.75;73.45
16806;BME280;8520;50.102;20.010;2022-12-20T02:36:02;99158.13;;;1.83;73.54
16806;BME280;8520;50.102;20.010;2022-12-20T02:38:32;99156.50;;;1.96;73.20
16806;BME280;8520;50.102;20.010;2022-12-20T02:41:04;99147.56;;;1.99;72.86
16806;BME280;8520;50.102;20.010;2022-12-20T02:43:35;99145.59;;;2.11;72.72
16806;BME280;8520;50.102;20.010;2022-12-20T02:46:25;99147.84;;;2.23;72.58
16806;BME280;8520;50.102;20.010;2022-12-20T02:48:55;99141.25;;;2.24;70.84
16806;BME280;8520;50.102;20.010;2022-12-20T02:51:25;99140.81;;;2.33;71.09
16806;BME280;8520;50.102;20.010;2022-12-20T02:53:56;99144.38;;;2.19;71.27
16806;BME280;8520;50.102;20.010;2022-12-20T02:56:27;99142.75;;;2.32;71.41
16806;BME280;8520;50.102;20.010;2022-12-20T02:59:02;99144.25;;;2.47;71.37
16806;BME280;8520;50.102;20.010;2022-12-20T03:01:37;99139.56;;;2.48;71.32
16806;BME280;8520;50.102;20.010;2022-12-20T03:04:07;99130.56;;;2.54;71.30
16806;BME280;8520;50.102;20.010;2022-12-20T03:06:38;99130.94;;;2.60;71.13
16806;BME280;8520;50.102;20.010;2022-12-20T03:09:06;99146.38;;;2.74;70.96
16806;BME280;8520;50.102;20.010;2022-12-20T03:11:36;99148.69;;;2.79;70.79
16806;BME280;8520;50.102;20.010;2022-12-20T03:14:04;99156.00;;;2.89;69.55
16806;BME280;8520;50.102;20.010;2022-12-20T03:16:34;99144.31;;;2.92;69.23
16806;BME280;8520;50.102;20.010;2022-12-20T03:19:02;99139.28;;;2.94;69.16
16806;BME280;8520;50.102;20.010;2022-12-20T03:21:30;99140.44;;;2.93;68.94
16806;BME280;8520;50.102;20.010;2022-12-20T03:23:59;99131.84;;;2.98;68.88
16806;BME280;8520;50.102;20.010;2022-12-20T03:26:27;99112.47;;;2.89;68.81
16806;BME280;8520;50.102;20.010;2022-12-20T03:28:58;99116.25;;;2.47;68.02
16806;BME280;8520;50.102;20.010;2022-12-20T03:31:27;99125.97;;;2.48;67.69
16806;BME280;8520;50.102;20.010;2022-12-20T03:33:56;99122.19;;;2.27;66.56
16806;BME280;8520;50.102;20.010;2022-12-20T03:36:25;99117.00;;;2.51;66.47
16806;BME280;8520;50.102;20.010;2022-12-20T03:38:57;99119.72;;;2.51;66.52
16806;BME280;8520;50.102;20.010;2022-12-20T03:41:29;99131.59;;;2.12;68.91
16806;BME280;8520;50.102;20.010;2022-12-20T03:43:58;99136.19;;;2.30;69.52
16806;BME280;8520;50.102;20.010;2022-12-20T03:46:26;99134.16;;;2.41;68.07
16806;BME280;8520;50.102;20.010;2022-12-20T03:48:56;99125.22;;;2.44;67.52
16806;BME280;8520;50.102;20.010;2022-12-20T03:51:25;99121.25;;;2.59;68.04
16806;BME280;8520;50.102;20.010;2022-12-20T03:53:53;99128.97;;;2.64;69.11
16806;BME280;8520;50.102;20.010;2022-12-20T03:56:28;99119.69;;;2.54;69.80
16806;BME280;8520;50.102;20.010;2022-12-20T03:58:56;99129.47;;;2.45;70.45
16806;BME280;8520;50.102;20.010;2022-12-20T04:01:26;99113.41;;;2.65;70.51
16806;BME280;8520;50.102;20.010;2022-12-20T04:03:57;99102.47;;;2.75;70.46
16806;BME280;8520;50.102;20.010;2022-12-20T04:06:26;99106.03;;;2.65;71.07
16806;BME280;8520;50.102;20.010;2022-12-20T04:08:54;99108.53;;;2.42;71.30
16806;BME280;8520;50.102;20.010;2022-12-20T04:11:27;99115.00;;;2.62;71.37
16806;BME280;8520;50.102;20.010;2022-12-20T04:14:09;99116.16;;;2.61;71.14
16806;BME280;8520;50.102;20.010;2022-12-20T04:16:37;99099.38;;;2.70;70.58
16806;BME280;8520;50.102;20.010;2022-12-20T04:19:07;99098.34;;;2.56;69.75
16806;BME280;8520;50.102;20.010;2022-12-20T04:21:40;99084.47;;;2.33;69.72
16806;BME280;8520;50.102;20.010;2022-12-20T04:24:08;99088.97;;;1.95;70.14
16806;BME280;8520;50.102;20.010;2022-12-20T04:27:05;99088.25;;;1.84;71.04
16806;BME280;8520;50.102;20.010;2022-12-20T04:29:33;99095.25;;;1.74;72.17
16806;BME280;8520;50.102;20.010;2022-12-20T04:32:04;99098.09;;;1.24;74.44
16806;BME280;8520;50.102;20.010;2022-12-20T04:34:33;99095.00;;;1.15;75.38
16806;BME280;8520;50.102;20.010;2022-12-20T04:37:02;99084.50;;;1.31;75.92
16806;BME280;8520;50.102;20.010;2022-12-20T04:39:41;99079.78;;;1.60;75.04
16806;BME280;8520;50.102;20.010;2022-12-20T04:42:32;99085.28;;;1.35;74.49
16806;BME280;8520;50.102;20.010;2022-12-20T04:45:01;99083.66;;;1.59;74.25
16806;BME280;8520;50.102;20.010;2022-12-20T04:47:30;99089.50;;;1.58;74.54
16806;BME280;8520;50.102;20.010;2022-12-20T04:49:59;99082.16;;;1.40;75.07
16806;BME280;8520;50.102;20.010;2022-12-20T04:52:28;99091.38;;;1.75;74.49
16806;BME280;8520;50.102;20.010;2022-12-20T04:55:15;99091.06;;;1.52;73.82
16806;BME280;8520;50.102;20.010;2022-12-20T04:57:43;99089.78;;;1.81;73.77
16806;BME280;8520;50.102;20.010;2022-12-20T05:00:12;99092.59;;;1.60;74.56
16806;BME280;8520;50.102;20.010;2022-12-20T05:02:44;99090.66;;;1.57;75.22
16806;BME280;8520;50.102;20.010;2022-12-20T05:05:17;99094.63;;;1.20;76.33
16806;BME280;8520;50.102;20.010;2022-12-20T05:07:50;99078.34;;;1.06;76.74
16806;BME280;8520;50.102;20.010;2022-12-20T05:10:18;99082.53;;;1.50;75.46
16806;BME280;8520;50.102;20.010;2022-12-20T05:12:47;99079.84;;;1.39;75.94
16806;BME280;8520;50.102;20.010;2022-12-20T05:15:37;99081.03;;;1.17;76.24
16806;BME280;8520;50.102;20.010;2022-12-20T05:18:06;99067.50;;;0.99;77.47
16806;BME280;8520;50.102;20.010;2022-12-20T05:20:49;99068.63;;;1.08;77.65
16806;BME280;8520;50.102;20.010;2022-12-20T05:23:39;99074.09;;;1.12;77.91
16806;BME280;8520;50.102;20.010;2022-12-20T05:26:31;99068.66;;;1.05;77.99
16806;BME280;8520;50.102;20.010;2022-12-20T05:29:00;99079.88;;;1.00;78.68
16806;BME280;8520;50.102;20.010;2022-12-20T05:31:28;99087.25;;;0.42;79.81
16806;BME280;8520;50.102;20.010;2022-12-20T05:33:57;99083.78;;;0.56;80.08
16806;BME280;8520;50.102;20.010;2022-12-20T05:36:31;99083.78;;;0.63;79.54
16806;BME280;8520;50.102;20.010;2022-12-20T05:39:01;99076.03;;;0.62;80.33
16806;BME280;8520;50.102;20.010;2022-12-20T05:41:33;99069.81;;;0.90;80.02
16806;BME280;8520;50.102;20.010;2022-12-20T05:44:02;99077.19;;;0.50;80.48
16806;BME280;8520;50.102;20.010;2022-12-20T05:46:33;99069.44;;;0.88;80.16
16806;BME280;8520;50.102;20.010;2022-12-20T05:49:06;99071.00;;;0.96;79.95
16806;BME280;8520;50.102;20.010;2022-12-20T05:51:35;99071.00;;;0.89;80.28
16806;BME280;8520;50.102;20.010;2022-12-20T05:54:21;99077.56;;;1.09;79.70
16806;BME280;8520;50.102;20.010;2022-12-20T05:57:12;99071.00;;;0.71;80.45
16806;BME280;8520;50.102;20.010;2022-12-20T05:59:41;99070.63;;;0.87;80.58
16806;BME280;8520;50.102;20.010;2022-12-20T06:02:19;99069.44;;;0.98;80.08
16806;BME280;8520;50.102;20.010;2022-12-20T06:04:52;99062.47;;;0.79;79.90
16806;BME280;8520;50.102;20.010;2022-12-20T06:07:24;99064.81;;;0.84;80.27
16806;BME280;8520;50.102;20.010;2022-12-20T06:09:57;99070.19;;;1.06;80.05
16806;BME280;8520;50.102;20.010;2022-12-20T06:12:38;99067.81;;;1.33;78.63
16806;BME280;8520;50.102;20.010;2022-12-20T06:15:07;99075.13;;;1.54;78.51
16806;BME280;8520;50.102;20.010;2022-12-20T06:17:37;99066.22;;;1.53;78.16
16806;BME280;8520;50.102;20.010;2022-12-20T06:20:07;99074.75;;;1.59;78.12
16806;BME280;8520;50.102;20.010;2022-12-20T06:22:36;99071.59;;;1.71;77.53
16806;BME280;8520;50.102;20.010;2022-12-20T06:25:05;99067.75;;;1.65;77.36
16806;BME280;8520;50.102;20.010;2022-12-20T06:27:37;99062.69;;;1.63;77.44
16806;BME280;8520;50.102;20.010;2022-12-20T06:30:12;99060.88;;;1.25;78.43
16806;BME280;8520;50.102;20.010;2022-12-20T06:33:03;99056.16;;;1.43;78.18
16806;BME280;8520;50.102;20.010;2022-12-20T06:35:31;99044.03;;;1.76;77.80
16806;BME280;8520;50.102;20.010;2022-12-20T06:38:01;99057.28;;;1.53;78.04
16806;BME280;8520;50.102;20.010;2022-12-20T06:40:32;99060.41;;;1.44;78.00
16806;BME280;8520;50.102;20.010;2022-12-20T06:43:00;99062.31;;;1.54;78.42
16806;BME280;8520;50.102;20.010;2022-12-20T06:45:28;99070.19;;;1.06;79.31
16806;BME280;8520;50.102;20.010;2022-12-20T06:48:05;99073.56;;;1.60;77.96
16806;BME280;8520;50.102;20.010;2022-12-20T06:50:34;99079.34;;;1.76;77.16
16806;BME280;8520;50.102;20.010;2022-12-20T06:53:03;99080.88;;;1.74;76.33
16806;BME280;8520;50.102;20.010;2022-12-20T06:55:32;99082.44;;;1.78;76.21
16806;BME280;8520;50.102;20.010;2022-12-20T06:58:00;99066.06;;;1.92;75.79
16806;BME280;8520;50.102;20.010;2022-12-20T07:00:28;99069.16;;;1.94;75.66
16806;BME280;8520;50.102;20.010;2022-12-20T07:02:57;99076.25;;;1.70;76.75
16806;BME280;8520;50.102;20.010;2022-12-20T07:05:25;99071.28;;;1.51;77.33
16806;BME280;8520;50.102;20.010;2022-12-20T07:07:53;99075.56;;;1.41;77.35
16806;BME280;8520;50.102;20.010;2022-12-20T07:10:22;99070.19;;;1.13;78.17
16806;BME280;8520;50.102;20.010;2022-12-20T07:12:51;99071.28;;;1.37;78.54
16806;BME280;8520;50.102;20.010;2022-12-20T07:15:19;99062.00;;;1.41;78.38
16806;BME280;8520;50.102;20.010;2022-12-20T07:17:47;99055.66;;;1.73;77.47
16806;BME280;8520;50.102;20.010;2022-12-20T07:20:16;99051.00;;;1.77;76.51
16806;BME280;8520;50.102;20.010;2022-12-20T07:22:46;99060.66;;;1.85;76.17
16806;BME280;8520;50.102;20.010;2022-12-20T07:25:14;99063.72;;;1.91;76.21
16806;BME280;8520;50.102;20.010;2022-12-20T07:27:47;99062.72;;;1.53;77.14
16806;BME280;8520;50.102;20.010;2022-12-20T07:30:16;99059.84;;;1.92;76.71
16806;BME280;8520;50.102;20.010;2022-12-20T07:32:44;99059.81;;;1.99;76.08
16806;BME280;8520;50.102;20.010;2022-12-20T07:35:13;99059.47;;;1.93;76.71
16806;BME280;8520;50.102;20.010;2022-12-20T07:37:42;99057.03;;;2.10;75.90
16806;BME280;8520;50.102;20.010;2022-12-20T07:40:11;99063.06;;;1.62;77.00
16806;BME280;8520;50.102;20.010;2022-12-20T07:42:40;99058.03;;;1.60;77.58
16806;BME280;8520;50.102;20.010;2022-12-20T07:45:16;99054.06;;;1.86;76.55
16806;BME280;8520;50.102;20.010;2022-12-20T07:47:44;99060.94;;;2.05;76.02
16806;BME280;8520;50.102;20.010;2022-12-20T07:50:12;99057.84;;;2.07;75.63
16806;BME280;8520;50.102;20.010;2022-12-20T07:52:42;99050.44;;;2.07;75.88
16806;BME280;8520;50.102;20.010;2022-12-20T07:55:12;99049.50;;;2.39;74.67
16806;BME280;8520;50.102;20.010;2022-12-20T07:57:44;99064.22;;;2.41;74.06
16806;BME280;8520;50.102;20.010;2022-12-20T08:00:16;99058.13;;;2.19;74.02
16806;BME280;8520;50.102;20.010;2022-12-20T08:02:48;99067.63;;;1.93;75.87
16806;BME280;8520;50.102;20.010;2022-12-20T08:05:20;99059.41;;;2.00;75.55
16806;BME280;8520;50.102;20.010;2022-12-20T08:07:48;99056.78;;;1.83;75.47
16806;BME280;8520;50.102;20.010;2022-12-20T08:10:24;99052.13;;;1.87;75.96
16806;BME280;8520;50.102;20.010;2022-12-20T08:12:53;99061.69;;;2.13;75.38
16806;BME280;8520;50.102;20.010;2022-12-20T08:15:24;99050.28;;;2.36;74.36
16806;BME280;8520;50.102;20.010;2022-12-20T08:17:52;99054.81;;;1.94;75.55
16806;BME280;8520;50.102;20.010;2022-12-20T08:20:20;99045.16;;;2.48;74.21
16806;BME280;8520;50.102;20.010;2022-12-20T08:22:48;99050.31;;;2.84;73.91
16806;BME280;8520;50.102;20.010;2022-12-20T08:25:17;99040.34;;;2.67;73.77
16806;BME280;8520;50.102;20.010;2022-12-20T08:27:45;99047.13;;;3.30;72.41
16806;BME280;8520;50.102;20.010;2022-12-20T08:30:13;99048.50;;;3.08;72.87
16806;BME280;8520;50.102;20.010;2022-12-20T08:32:43;99049.75;;;3.03;73.51
16806;BME280;8520;50.102;20.010;2022-12-20T08:35:11;99046.81;;;3.59;71.82
16806;BME280;8520;50.102;20.010;2022-12-20T08:37:39;99042.34;;;3.76;70.52
16806;BME280;8520;50.102;20.010;2022-12-20T08:40:08;99045.84;;;3.76;70.69
16806;BME280;8520;50.102;20.010;2022-12-20T08:42:37;99041.84;;;3.84;70.40
16806;BME280;8520;50.102;20.010;2022-12-20T08:45:05;99034.72;;;3.90;70.14
16806;BME280;8520;50.102;20.010;2022-12-20T08:47:34;99036.94;;;4.03;69.71
16806;BME280;8520;50.102;20.010;2022-12-20T08:50:04;99035.69;;;4.07;69.66
16806;BME280;8520;50.102;20.010;2022-12-20T08:52:32;99033.06;;;4.27;69.02
16806;BME280;8520;50.102;20.010;2022-12-20T08:55:00;99022.22;;;4.47;68.51
16806;BME280;8520;50.102;20.010;2022-12-20T08:57:31;99027.94;;;4.29;68.67
16806;BME280;8520;50.102;20.010;2022-12-20T08:59:59;99026.72;;;4.07;69.42
16806;BME280;8520;50.102;20.010;2022-12-20T09:02:27;99023.56;;;4.12;69.12
16806;BME280;8520;50.102;20.010;2022-12-20T09:04:55;99026.53;;;3.94;69.95
16806;BME280;8520;50.102;20.010;2022-12-20T09:07:26;99031.44;;;4.29;69.37
16806;BME280;8520;50.102;20.010;2022-12-20T09:09:54;99042.00;;;4.00;69.26
16806;BME280;8520;50.102;20.010;2022-12-20T09:12:22;99038.38;;;3.80;69.74
16806;BME280;8520;50.102;20.010;2022-12-20T09:14:52;99023.16;;;4.37;69.27
16806;BME280;8520;50.102;20.010;2022-12-20T09:17:20;99019.72;;;4.33;68.62
16806;BME280;8520;50.102;20.010;2022-12-20T09:19:48;99021.47;;;3.92;69.67
16806;BME280;8520;50.102;20.010;2022-12-20T09:22:16;99026.06;;;3.99;70.66
16806;BME280;8520;50.102;20.010;2022-12-20T09:24:46;99029.91;;;3.37;71.01
16806;BME280;8520;50.102;20.010;2022-12-20T09:27:14;99015.34;;;3.85;70.58
16806;BME280;8520;50.102;20.010;2022-12-20T09:29:43;99015.16;;;4.26;69.94
16806;BME280;8520;50.102;20.010;2022-12-20T09:32:11;99010.00;;;4.05;70.28
16806;BME280;8520;50.102;20.010;2022-12-20T09:34:41;99009.44;;;4.17;69.90
16806;BME280;8520;50.102;20.010;2022-12-20T09:37:14;99005.16;;;4.43;69.36
16806;BME280;8520;50.102;20.010;2022-12-20T09:39:42;99003.50;;;4.49;69.11
16806;BME280;8520;50.102;20.010;2022-12-20T09:42:14;98995.78;;;4.67;68.77
16806;BME280;8520;50.102;20.010;2022-12-20T09:44:42;98986.34;;;4.95;67.50
16806;BME280;8520;50.102;20.010;2022-12-20T09:47:14;98992.72;;;5.28;67.27
16806;BME280;8520;50.102;20.010;2022-12-20T09:49:46;98996.44;;;5.18;66.93
16806;BME280;8520;50.102;20.010;2022-12-20T09:52:25;99002.03;;;5.11;67.48
16806;BME280;8520;50.102;20.010;2022-12-20T09:55:00;98991.34;;;5.60;66.18
16806;BME280;8520;50.102;20.010;2022-12-20T09:57:44;98997.13;;;5.62;66.60
16806;BME280;8520;50.102;20.010;2022-12-20T10:00:16;98985.63;;;5.70;65.69
16806;BME280;8520;50.102;20.010;2022-12-20T10:02:46;98990.47;;;5.63;65.92
16806;BME280;8520;50.102;20.010;2022-12-20T10:05:38;98994.34;;;5.26;66.45
16806;BME280;8520;50.102;20.010;2022-12-20T10:08:29;99001.22;;;5.90;65.89
16806;BME280;8520;50.102;20.010;2022-12-20T10:11:09;98991.06;;;5.14;66.68
16806;BME280;8520;50.102;20.010;2022-12-20T10:13:51;98998.44;;;4.24;68.45
16806;BME280;8520;50.102;20.010;2022-12-20T10:16:35;98998.94;;;4.42;69.86
16806;BME280;8520;50.102;20.010;2022-12-20T10:19:17;98993.75;;;4.48;68.99
16806;BME280;8520;50.102;20.010;2022-12-20T10:21:52;98983.63;;;5.15;68.04
16806;BME280;8520;50.102;20.010;2022-12-20T10:24:28;98976.50;;;5.41;67.66
16806;BME280;8520;50.102;20.010;2022-12-20T10:27:03;98964.38;;;5.78;66.21
16806;BME280;8520;50.102;20.010;2022-12-20T10:29:35;98955.81;;;6.28;65.51
16806;BME280;8520;50.102;20.010;2022-12-20T10:32:11;98951.97;;;6.10;64.81
16806;BME280;8520;50.102;20.010;2022-12-20T10:34:44;98927.06;;;6.69;63.85
16806;BME280;8520;50.102;20.010;2022-12-20T10:37:17;98921.84;;;6.59;63.92
16806;BME280;8520;50.102;20.010;2022-12-20T10:39:47;98928.88;;;6.11;63.74
16806;BME280;8520;50.102;20.010;2022-12-20T10:42:29;98914.34;;;6.46;64.00
16806;BME280;8520;50.102;20.010;2022-12-20T10:45:01;98911.88;;;6.19;63.25
16806;BME280;8520;50.102;20.010;2022-12-20T10:47:36;98900.91;;;6.52;63.80
16806;BME280;8520;50.102;20.010;2022-12-20T10:50:13;98902.19;;;6.76;63.10
16806;BME280;8520;50.102;20.010;2022-12-20T10:52:43;98895.25;;;6.59;62.70
16806;BME280;8520;50.102;20.010;2022-12-20T10:55:34;98884.81;;;6.83;61.98
16806;BME280;8520;50.102;20.010;2022-12-20T10:58:04;98887.88;;;6.85;62.68
16806;BME280;8520;50.102;20.010;2022-12-20T11:00:35;98878.81;;;6.59;63.31
16806;BME280;8520;50.102;20.010;2022-12-20T11:03:12;98868.41;;;6.38;63.16
16806;BME280;8520;50.102;20.010;2022-12-20T11:05:55;98881.44;;;6.34;62.79
16806;BME280;8520;50.102;20.010;2022-12-20T11:08:25;98875.97;;;6.17;63.37
16806;BME280;8520;50.102;20.010;2022-12-20T11:11:16;98877.38;;;5.73;64.34
16806;BME280;8520;50.102;20.010;2022-12-20T11:13:46;98881.94;;;6.12;63.84
16806;BME280;8520;50.102;20.010;2022-12-20T11:16:40;98873.56;;;6.65;63.56
16806;BME280;8520;50.102;20.010;2022-12-20T11:19:29;98873.38;;;6.72;63.41
16806;BME280;8520;50.102;20.010;2022-12-20T11:22:04;98882.22;;;6.63;63.31
16806;BME280;8520;50.102;20.010;2022-12-20T11:24:44;98876.72;;;6.18;64.04
16806;BME280;8520;50.102;20.010;2022-12-20T11:27:25;98877.56;;;5.82;64.61
16806;BME280;8520;50.102;20.010;2022-12-20T11:30:14;98877.63;;;5.62;64.93
16806;BME280;8520;50.102;20.010;2022-12-20T11:33:10;98877.09;;;5.15;66.96
16806;BME280;8520;50.102;20.010;2022-12-20T11:35:49;98900.88;;;4.75;67.98
16806;BME280;8520;50.102;20.010;2022-12-20T11:38:32;98896.03;;;4.63;69.15
16806;BME280;8520;50.102;20.010;2022-12-20T11:41:16;98889.13;;;4.58;69.77
16806;BME280;8520;50.102;20.010;2022-12-20T11:44:10;98884.28;;;4.22;71.12
16806;BME280;8520;50.102;20.010;2022-12-20T11:47:03;98872.34;;;4.79;70.92
16806;BME280;8520;50.102;20.010;2022-12-20T11:50:06;98857.78;;;4.86;70.72
16806;BME280;8520;50.102;20.010;2022-12-20T11:52:44;98854.69;;;4.84;71.03
16806;BME280;8520;50.102;20.010;2022-12-20T11:55:17;98851.09;;;5.07;70.57
16806;BME280;8520;50.102;20.010;2022-12-20T11:57:54;98832.50;;;5.54;69.43
16806;BME280;8520;50.102;20.010;2022-12-20T12:00:49;98851.69;;;5.34;69.33
16806;BME280;8520;50.102;20.010;2022-12-20T12:03:25;98842.81;;;5.10;69.28
16806;BME280;8520;50.102;20.010;2022-12-20T12:05:59;98838.06;;;5.51;69.17
16806;BME280;8520;50.102;20.010;2022-12-20T12:08:37;98838.13;;;5.47;69.45
16806;BME280;8520;50.102;20.010;2022-12-20T12:11:12;98832.41;;;5.41;69.39
16806;BME280;8520;50.102;20.010;2022-12-20T12:14:02;98845.13;;;5.12;69.18
16806;BME280;8520;50.102;20.010;2022-12-20T12:16:34;98840.66;;;5.22;69.96
16806;BME280;8520;50.102;20.010;2022-12-20T12:19:07;98838.03;;;5.34;70.04
16806;BME280;8520;50.102;20.010;2022-12-20T12:21:42;98852.00;;;5.00;70.72
16806;BME280;8520;50.102;20.010;2022-12-20T12:24:18;98839.06;;;5.40;69.77
16806;BME280;8520;50.102;20.010;2022-12-20T12:26:51;98843.34;;;5.05;70.80
16806;BME280;8520;50.102;20.010;2022-12-20T12:29:20;98839.19;;;5.17;70.55
16806;BME280;8520;50.102;20.010;2022-12-20T12:31:53;98836.06;;;5.35;70.18
16806;BME280;8520;50.102;20.010;2022-12-20T12:34:31;98835.38;;;5.31;70.77
16806;BME280;8520;50.102;20.010;2022-12-20T12:37:33;98825.91;;;5.35;70.37
16806;BME280;8520;50.102;20.010;2022-12-20T12:40:21;98811.84;;;5.69;69.56
16806;BME280;8520;50.102;20.010;2022-12-20T12:46:15;98807.84;;;5.58;69.04
16806;BME280;8520;50.102;20.010;2022-12-20T12:48:50;98811.69;;;5.77;68.89
16806;BME280;8520;50.102;20.010;2022-12-20T12:51:25;98820.13;;;5.66;69.11
16806;BME280;8520;50.102;20.010;2022-12-20T12:54:20;98818.22;;;4.94;70.46
16806;BME280;8520;50.102;20.010;2022-12-20T12:57:02;98815.84;;;4.96;71.28
16806;BME280;8520;50.102;20.010;2022-12-20T12:59:43;98824.22;;;4.66;72.43
16806;BME280;8520;50.102;20.010;2022-12-20T13:02:48;98838.63;;;4.46;73.42
16806;BME280;8520;50.102;20.010;2022-12-20T13:05:34;98840.59;;;4.03;74.98
16806;BME280;8520;50.102;20.010;2022-12-20T13:08:02;98835.69;;;4.37;74.22
16806;BME280;8520;50.102;20.010;2022-12-20T13:10:56;98834.41;;;4.22;74.49
16806;BME280;8520;50.102;20.010;2022-12-20T13:13:25;98833.03;;;4.10;74.83
16806;BME280;8520;50.102;20.010;2022-12-20T13:16:26;98832.34;;;4.06;75.15
16806;BME280;8520;50.102;20.010;2022-12-20T13:19:34;98829.03;;;4.38;74.88
16806;BME280;8520;50.102;20.010;2022-12-20T13:22:19;98824.78;;;4.37;74.71
16806;BME280;8520;50.102;20.010;2022-12-20T13:24:52;98827.66;;;4.30;74.55
16806;BME280;8520;50.102;20.010;2022-12-20T13:27:26;98833.44;;;4.32;74.88
16806;BME280;8520;50.102;20.010;2022-12-20T13:29:58;98821.25;;;4.60;74.40
16806;BME280;8520;50.102;20.010;2022-12-20T13:32:57;98819.88;;;4.28;74.78
16806;BME280;8520;50.102;20.010;2022-12-20T13:35:43;98821.16;;;4.20;74.65
16806;BME280;8520;50.102;20.010;2022-12-20T13:41:36;98807.94;;;4.42;73.92
16806;BME280;8520;50.102;20.010;2022-12-20T13:44:32;98804.91;;;4.96;72.25
16806;BME280;8520;50.102;20.010;2022-12-20T13:47:06;98809.22;;;4.94;72.20
16806;BME280;8520;50.102;20.010;2022-12-20T13:49:40;98812.09;;;5.06;71.54
16806;BME280;8520;50.102;20.010;2022-12-20T13:52:21;98806.13;;;5.11;71.62
